sensor_id;sensor_type;location;lat;lon;timestamp;temperature;humidity
12841;DHT22;6487;48.626;12.486;2023-07-13T00:01:39;20.30;99.90
12841;DHT22;6487;48.626;12.486;2023-07-13T00:04:08;20.30;99.90
12841;DHT22;6487;48.626;12.486;2023-07-13T00:06:36;20.30;99.90
12841;DHT22;6487;48.626;12.486;2023-07-13T00:09:06;20.30;99.90
12841;DHT22;6487;48.626;12.486;2023-07-13T00:11:37;20.30;99.90
12841;DHT22;6487;48.626;12.486;2023-07-13T00:14:06;20.30;99.90
12841;DHT22;6487;48.626;12.486;2023-07-13T00:16:37;20.40;99.90
12841;DHT22;6487;48.626;12.486;2023-07-13T00:19:07;20.40;99.90
12841;DHT22;6487;48.626;12.486;2023-07-13T00:21:35;20.40;99.90
12841;DHT22;6487;48.626;12.486;2023-07-13T00:24:05;20.30;99.90
12841;DHT22;6487;48.626;12.486;2023-07-13T00:26:34;20.20;99.90
12841;DHT22;6487;48.626;12.486;2023-07-13T00:29:03;20.20;99.90
12841;DHT22;6487;48.626;12.486;2023-07-13T00:31:36;20.10;99.90
12841;DHT22;6487;48.626;12.486;2023-07-13T00:34:04;20.10;99.90
12841;DHT22;6487;48.626;12.486;2023-07-13T00:36:36;20.10;99.90
12841;DHT22;6487;48.626;12.486;2023-07-13T00:39:06;20.10;99.90
12841;DHT22;6487;48.626;12.486;2023-07-13T00:41:34;20.00;99.90
12841;DHT22;6487;48.626;12.486;2023-07-13T00:44:04;19.90;99.90
12841;DHT22;6487;48.626;12.486;2023-07-13T00:46:33;19.90;99.90
12841;DHT22;6487;48.626;12.486;2023-07-13T00:49:04;19.90;99.90
12841;DHT22;6487;48.626;12.486;2023-07-13T00:51:37;20.00;99.90
12841;DHT22;6487;48.626;12.486;2023-07-13T00:54:11;19.90;99.90
12841;DHT22;6487;48.626;12.486;2023-07-13T00:56:43;20.00;99.90
12841;DHT22;6487;48.626;12.486;2023-07-13T00:59:15;19.90;99.90
12841;DHT22;6487;48.626;12.486;2023-07-13T01:01:46;20.00;99.90
12841;DHT22;6487;48.626;12.486;2023-07-13T01:04:17;20.00;99.90
12841;DHT22;6487;48.626;12.486;2023-07-13T01:06:46;19.90;99.90
12841;DHT22;6487;48.626;12.486;2023-07-13T01:09:17;19.90;99.90
12841;DHT22;6487;48.626;12.486;2023-07-13T01:11:46;19.90;99.90
12841;DHT22;6487;48.626;12.486;2023-07-13T01:14:15;19.90;99.90
12841;DHT22;6487;48.626;12.486;2023-07-13T01:16:49;19.90;99.90
12841;DHT22;6487;48.626;12.486;2023-07-13T01:19:31;19.90;99.90
12841;DHT22;6487;48.626;12.486;2023-07-13T01:22:07;19.90;99.90
12841;DHT22;6487;48.626;12.486;2023-07-13T01:24:40;19.90;99.90
12841;DHT22;6487;48.626;12.486;2023-07-13T01:27:11;19.90;99.90
12841;DHT22;6487;48.626;12.486;2023-07-13T01:29:43;20.00;99.90
12841;DHT22;6487;48.626;12.486;2023-07-13T01:32:16;19.90;99.90
12841;DHT22;6487;48.626;12.486;2023-07-13T01:34:52;20.00;99.90
12841;DHT22;6487;48.626;12.486;2023-07-13T01:37:24;20.00;99.90
12841;DHT22;6487;48.626;12.486;2023-07-13T01:39:53;19.90;99.90
12841;DHT22;6487;48.626;12.486;2023-07-13T01:42:24;19.90;99.90
12841;DHT22;6487;48.626;12.486;2023-07-13T01:44:53;19.90;99.90
12841;DHT22;6487;48.626;12.486;2023-07-13T01:47:22;19.90;99.90
12841;DHT22;6487;48.626;12.486;2023-07-13T01:49:53;19.90;99.90
12841;DHT22;6487;48.626;12.486;2023-07-13T01:52:22;19.90;99.90
12841;DHT22;6487;48.626;12.486;2023-07-13T01:54:51;20.00;99.90
12841;DHT22;6487;48.626;12.486;2023-07-13T01:57:19;19.90;99.90
12841;DHT22;6487;48.626;12.486;2023-07-13T01:59:48;19.90;99.90
12841;DHT22;6487;48.626;12.486;2023-07-13T02:02:16;20.00;99.90
12841;DHT22;6487;48.626;12.486;2023-07-13T02:04:48;20.00;99.90
12841;DHT22;6487;48.626;12.486;2023-07-13T02:07:16;20.00;99.90
12841;DHT22;6487;48.626;12.486;2023-07-13T02:09:46;20.00;99.90
12841;DHT22;6487;48.626;12.486;2023-07-13T02:12:15;20.10;99.90
12841;DHT22;6487;48.626;12.486;2023-07-13T02:14:43;20.10;99.90
12841;DHT22;6487;48.626;12.486;2023-07-13T02:17:11;20.10;99.90
12841;DHT22;6487;48.626;12.486;2023-07-13T02:19:40;20.00;99.90
12841;DHT22;6487;48.626;12.486;2023-07-13T02:22:08;20.00;99.90
12841;DHT22;6487;48.626;12.486;2023-07-13T02:24:40;20.10;99.90
12841;DHT22;6487;48.626;12.486;2023-07-13T02:27:09;20.10;99.90
12841;DHT22;6487;48.626;12.486;2023-07-13T02:29:38;20.10;99.90
12841;DHT22;6487;48.626;12.486;2023-07-13T02:32:07;20.10;99.90
12841;DHT22;6487;48.626;12.486;2023-07-13T02:34:40;20.00;99.90
12841;DHT22;6487;48.626;12.486;2023-07-13T02:37:08;20.00;99.90
12841;DHT22;6487;48.626;12.486;2023-07-13T02:39:39;20.00;99.90
12841;DHT22;6487;48.626;12.486;2023-07-13T02:42:09;20.10;99.90
12841;DHT22;6487;48.626;12.486;2023-07-13T02:44:37;20.10;99.90
12841;DHT22;6487;48.626;12.486;2023-07-13T02:47:06;20.10;99.90
12841;DHT22;6487;48.626;12.486;2023-07-13T02:49:35;20.10;99.90
12841;DHT22;6487;48.626;12.486;2023-07-13T02:52:04;20.10;99.90
12841;DHT22;6487;48.626;12.486;2023-07-13T02:54:33;20.10;99.90
12841;DHT22;6487;48.626;12.486;2023-07-13T02:57:01;20.10;99.90
12841;DHT22;6487;48.626;12.486;2023-07-13T02:59:31;20.10;99.90
12841;DHT22;6487;48.626;12.486;2023-07-13T03:02:00;20.10;99.90
12841;DHT22;6487;48.626;12.486;2023-07-13T03:04:29;20.10;99.90
12841;DHT22;6487;48.626;12.486;2023-07-13T03:06:57;20.10;99.90
12841;DHT22;6487;48.626;12.486;2023-07-13T03:09:26;20.10;99.90
12841;DHT22;6487;48.626;12.486;2023-07-13T03:11:54;20.10;99.90
12841;DHT22;6487;48.626;12.486;2023-07-13T03:14:23;20.10;99.90
12841;DHT22;6487;48.626;12.486;2023-07-13T03:16:53;20.10;99.90
12841;DHT22;6487;48.626;12.486;2023-07-13T03:19:24;20.10;99.90
12841;DHT22;6487;48.626;12.486;2023-07-13T03:21:55;20.10;99.90
12841;DHT22;6487;48.626;12.486;2023-07-13T03:24:24;20.10;99.90
12841;DHT22;6487;48.626;12.486;2023-07-13T03:26:52;20.10;99.90
12841;DHT22;6487;48.626;12.486;2023-07-13T03:29:21;20.10;99.90
12841;DHT22;6487;48.626;12.486;2023-07-13T03:31:49;20.10;99.90
12841;DHT22;6487;48.626;12.486;2023-07-13T03:34:19;20.10;99.90
12841;DHT22;6487;48.626;12.486;2023-07-13T03:36:53;20.00;99.90
12841;DHT22;6487;48.626;12.486;2023-07-13T03:39:22;20.00;99.90
12841;DHT22;6487;48.626;12.486;2023-07-13T03:41:50;20.00;99.90
12841;DHT22;6487;48.626;12.486;2023-07-13T03:44:19;20.00;99.90
12841;DHT22;6487;48.626;12.486;2023-07-13T03:46:50;20.10;99.90
12841;DHT22;6487;48.626;12.486;2023-07-13T03:49:20;20.10;99.90
12841;DHT22;6487;48.626;12.486;2023-07-13T03:51:48;20.10;99.90
12841;DHT22;6487;48.626;12.486;2023-07-13T03:54:20;20.10;99.90
12841;DHT22;6487;48.626;12.486;2023-07-13T03:56:48;20.10;99.90
12841;DHT22;6487;48.626;12.486;2023-07-13T03:59:16;20.10;99.90
12841;DHT22;6487;48.626;12.486;2023-07-13T04:01:47;20.10;99.90
12841;DHT22;6487;48.626;12.486;2023-07-13T04:04:15;20.10;99.90
12841;DHT22;6487;48.626;12.486;2023-07-13T04:06:45;20.00;99.90
12841;DHT22;6487;48.626;12.486;2023-07-13T04:09:13;20.00;99.90
12841;DHT22;6487;48.626;12.486;2023-07-13T04:11:45;20.10;99.90
12841;DHT22;6487;48.626;12.486;2023-07-13T04:14:13;20.10;99.90
12841;DHT22;6487;48.626;12.486;2023-07-13T04:16:42;20.10;99.90
12841;DHT22;6487;48.626;12.486;2023-07-13T04:19:13;20.10;99.90
12841;DHT22;6487;48.626;12.486;2023-07-13T04:21:41;20.10;99.90
12841;DHT22;6487;48.626;12.486;2023-07-13T04:24:11;20.10;99.90
12841;DHT22;6487;48.626;12.486;2023-07-13T04:26:39;20.10;99.90
12841;DHT22;6487;48.626;12.486;2023-07-13T04:29:08;20.10;99.90
12841;DHT22;6487;48.626;12.486;2023-07-13T04:31:36;20.20;99.90
12841;DHT22;6487;48.626;12.486;2023-07-13T04:34:08;20.10;99.90
12841;DHT22;6487;48.626;12.486;2023-07-13T04:36:36;20.10;99.90
12841;DHT22;6487;48.626;12.486;2023-07-13T04:39:05;20.20;99.90
12841;DHT22;6487;48.626;12.486;2023-07-13T04:41:35;20.20;99.90
12841;DHT22;6487;48.626;12.486;2023-07-13T04:44:07;20.20;99.90
12841;DHT22;6487;48.626;12.486;2023-07-13T04:46:35;20.10;99.90
12841;DHT22;6487;48.626;12.486;2023-07-13T04:49:04;20.20;99.90
12841;DHT22;6487;48.626;12.486;2023-07-13T04:51:35;20.10;99.90
12841;DHT22;6487;48.626;12.486;2023-07-13T04:54:04;20.20;99.90
12841;DHT22;6487;48.626;12.486;2023-07-13T04:56:36;20.20;99.90
12841;DHT22;6487;48.626;12.486;2023-07-13T04:59:04;20.20;99.90
12841;DHT22;6487;48.626;12.486;2023-07-13T05:01:32;20.20;99.90
12841;DHT22;6487;48.626;12.486;2023-07-13T05:04:01;20.20;99.90
12841;DHT22;6487;48.626;12.486;2023-07-13T05:06:29;20.30;99.90
12841;DHT22;6487;48.626;12.486;2023-07-13T05:08:58;20.20;99.90
12841;DHT22;6487;48.626;12.486;2023-07-13T05:11:26;20.20;99.90
12841;DHT22;6487;48.626;12.486;2023-07-13T05:13:56;20.30;99.90
12841;DHT22;6487;48.626;12.486;2023-07-13T05:16:24;20.20;99.90
12841;DHT22;6487;48.626;12.486;2023-07-13T05:18:53;20.20;99.90
12841;DHT22;6487;48.626;12.486;2023-07-13T05:21:21;20.30;99.90
12841;DHT22;6487;48.626;12.486;2023-07-13T05:23:50;20.30;99.90
12841;DHT22;6487;48.626;12.486;2023-07-13T05:26:19;20.30;99.90
12841;DHT22;6487;48.626;12.486;2023-07-13T05:28:47;20.30;99.90
12841;DHT22;6487;48.626;12.486;2023-07-13T05:31:17;20.30;99.90
12841;DHT22;6487;48.626;12.486;2023-07-13T05:33:46;20.40;99.90
12841;DHT22;6487;48.626;12.486;2023-07-13T05:36:14;20.40;99.90
12841;DHT22;6487;48.626;12.486;2023-07-13T05:38:42;20.40;99.90
12841;DHT22;6487;48.626;12.486;2023-07-13T05:41:11;20.40;99.90
12841;DHT22;6487;48.626;12.486;2023-07-13T05:43:39;20.40;99.90
12841;DHT22;6487;48.626;12.486;2023-07-13T05:46:08;20.40;99.90
12841;DHT22;6487;48.626;12.486;2023-07-13T05:48:37;20.50;99.90
12841;DHT22;6487;48.626;12.486;2023-07-13T05:51:06;20.50;99.90
12841;DHT22;6487;48.626;12.486;2023-07-13T05:53:34;20.60;99.90
12841;DHT22;6487;48.626;12.486;2023-07-13T05:56:03;20.60;99.90
12841;DHT22;6487;48.626;12.486;2023-07-13T05:58:32;20.60;99.90
12841;DHT22;6487;48.626;12.486;2023-07-13T06:01:02;20.60;99.90
12841;DHT22;6487;48.626;12.486;2023-07-13T06:03:32;20.70;99.90
12841;DHT22;6487;48.626;12.486;2023-07-13T06:06:02;20.70;99.90
12841;DHT22;6487;48.626;12.486;2023-07-13T06:08:32;20.70;99.90
12841;DHT22;6487;48.626;12.486;2023-07-13T06:11:05;20.70;99.90
12841;DHT22;6487;48.626;12.486;2023-07-13T06:13:34;20.70;99.90
12841;DHT22;6487;48.626;12.486;2023-07-13T06:16:04;20.60;99.90
12841;DHT22;6487;48.626;12.486;2023-07-13T06:18:33;20.70;99.90
12841;DHT22;6487;48.626;12.486;2023-07-13T06:21:06;20.60;99.90
12841;DHT22;6487;48.626;12.486;2023-07-13T06:23:35;20.60;99.90
12841;DHT22;6487;48.626;12.486;2023-07-13T06:26:04;20.60;99.90
12841;DHT22;6487;48.626;12.486;2023-07-13T06:28:35;20.60;99.90
12841;DHT22;6487;48.626;12.486;2023-07-13T06:31:06;20.70;99.90
12841;DHT22;6487;48.626;12.486;2023-07-13T06:33:36;20.70;99.90
12841;DHT22;6487;48.626;12.486;2023-07-13T06:36:07;20.50;99.90
12841;DHT22;6487;48.626;12.486;2023-07-13T06:38:36;20.60;99.90
12841;DHT22;6487;48.626;12.486;2023-07-13T06:41:06;20.60;99.90
12841;DHT22;6487;48.626;12.486;2023-07-13T06:43:36;20.70;99.90
12841;DHT22;6487;48.626;12.486;2023-07-13T06:46:04;20.80;99.90
12841;DHT22;6487;48.626;12.486;2023-07-13T06:48:33;20.80;99.90
12841;DHT22;6487;48.626;12.486;2023-07-13T06:51:02;20.80;99.90
12841;DHT22;6487;48.626;12.486;2023-07-13T06:53:32;20.80;99.90
12841;DHT22;6487;48.626;12.486;2023-07-13T06:56:03;20.80;99.90
12841;DHT22;6487;48.626;12.486;2023-07-13T06:58:33;20.80;99.90
12841;DHT22;6487;48.626;12.486;2023-07-13T07:01:02;20.80;99.90
12841;DHT22;6487;48.626;12.486;2023-07-13T07:03:34;20.90;99.90
12841;DHT22;6487;48.626;12.486;2023-07-13T07:06:09;20.90;99.90
12841;DHT22;6487;48.626;12.486;2023-07-13T07:08:43;21.10;99.90
12841;DHT22;6487;48.626;12.486;2023-07-13T07:11:15;21.10;99.90
12841;DHT22;6487;48.626;12.486;2023-07-13T07:13:45;21.20;99.90
12841;DHT22;6487;48.626;12.486;2023-07-13T07:16:16;21.30;99.90
12841;DHT22;6487;48.626;12.486;2023-07-13T07:18:46;21.20;99.90
12841;DHT22;6487;48.626;12.486;2023-07-13T07:21:15;21.30;99.90
12841;DHT22;6487;48.626;12.486;2023-07-13T07:23:45;21.40;99.90
12841;DHT22;6487;48.626;12.486;2023-07-13T07:26:14;21.40;99.90
12841;DHT22;6487;48.626;12.486;2023-07-13T07:28:42;21.60;99.90
12841;DHT22;6487;48.626;12.486;2023-07-13T07:31:17;21.70;99.90
12841;DHT22;6487;48.626;12.486;2023-07-13T07:33:49;21.80;99.90
12841;DHT22;6487;48.626;12.486;2023-07-13T07:36:18;21.80;99.90
12841;DHT22;6487;48.626;12.486;2023-07-13T07:38:50;22.10;99.90
12841;DHT22;6487;48.626;12.486;2023-07-13T07:41:19;22.30;99.90
12841;DHT22;6487;48.626;12.486;2023-07-13T07:43:50;22.50;99.90
12841;DHT22;6487;48.626;12.486;2023-07-13T07:46:18;22.70;99.90
12841;DHT22;6487;48.626;12.486;2023-07-13T07:48:47;22.70;99.90
12841;DHT22;6487;48.626;12.486;2023-07-13T07:51:15;22.80;99.90
12841;DHT22;6487;48.626;12.486;2023-07-13T07:53:43;22.80;99.90
12841;DHT22;6487;48.626;12.486;2023-07-13T07:56:13;22.90;99.90
12841;DHT22;6487;48.626;12.486;2023-07-13T07:58:45;22.80;99.90
12841;DHT22;6487;48.626;12.486;2023-07-13T08:01:17;22.80;99.90
12841;DHT22;6487;48.626;12.486;2023-07-13T08:03:48;23.00;99.90
12841;DHT22;6487;48.626;12.486;2023-07-13T08:06:19;23.00;99.90
12841;DHT22;6487;48.626;12.486;2023-07-13T08:08:51;23.30;99.90
12841;DHT22;6487;48.626;12.486;2023-07-13T08:11:21;23.40;99.90
12841;DHT22;6487;48.626;12.486;2023-07-13T08:13:53;23.50;99.90
12841;DHT22;6487;48.626;12.486;2023-07-13T08:16:30;23.50;99.90
12841;DHT22;6487;48.626;12.486;2023-07-13T08:19:00;23.80;99.90
12841;DHT22;6487;48.626;12.486;2023-07-13T08:21:28;23.90;99.50
12841;DHT22;6487;48.626;12.486;2023-07-13T08:23:57;24.00;99.90
12841;DHT22;6487;48.626;12.486;2023-07-13T08:26:25;24.00;98.70
12841;DHT22;6487;48.626;12.486;2023-07-13T08:28:53;23.80;99.10
12841;DHT22;6487;48.626;12.486;2023-07-13T08:31:24;24.00;99.00
12841;DHT22;6487;48.626;12.486;2023-07-13T08:33:57;24.10;98.60
12841;DHT22;6487;48.626;12.486;2023-07-13T08:36:26;24.20;98.40
12841;DHT22;6487;48.626;12.486;2023-07-13T08:38:55;24.30;98.60
12841;DHT22;6487;48.626;12.486;2023-07-13T08:41:23;24.50;99.50
12841;DHT22;6487;48.626;12.486;2023-07-13T08:43:57;24.60;98.20
12841;DHT22;6487;48.626;12.486;2023-07-13T08:46:34;24.60;96.60
12841;DHT22;6487;48.626;12.486;2023-07-13T08:49:08;24.60;97.00
12841;DHT22;6487;48.626;12.486;2023-07-13T08:51:41;24.60;97.60
12841;DHT22;6487;48.626;12.486;2023-07-13T08:54:19;24.70;96.50
12841;DHT22;6487;48.626;12.486;2023-07-13T08:56:50;24.70;96.10
12841;DHT22;6487;48.626;12.486;2023-07-13T08:59:24;24.70;95.60
12841;DHT22;6487;48.626;12.486;2023-07-13T09:02:05;24.70;95.20
12841;DHT22;6487;48.626;12.486;2023-07-13T09:04:48;24.80;95.80
12841;DHT22;6487;48.626;12.486;2023-07-13T09:07:28;24.70;95.60
12841;DHT22;6487;48.626;12.486;2023-07-13T09:10:10;24.60;94.50
12841;DHT22;6487;48.626;12.486;2023-07-13T09:12:53;24.50;93.70
12841;DHT22;6487;48.626;12.486;2023-07-13T09:15:31;24.50;95.80
12841;DHT22;6487;48.626;12.486;2023-07-13T09:18:05;24.50;95.60
12841;DHT22;6487;48.626;12.486;2023-07-13T09:20:40;24.50;94.50
12841;DHT22;6487;48.626;12.486;2023-07-13T09:23:14;24.50;92.70
12841;DHT22;6487;48.626;12.486;2023-07-13T09:25:47;24.50;92.60
12841;DHT22;6487;48.626;12.486;2023-07-13T09:28:21;24.40;92.40
12841;DHT22;6487;48.626;12.486;2023-07-13T09:30:54;24.50;93.20
12841;DHT22;6487;48.626;12.486;2023-07-13T09:33:29;24.50;92.70
12841;DHT22;6487;48.626;12.486;2023-07-13T09:36:17;24.60;92.10
12841;DHT22;6487;48.626;12.486;2023-07-13T09:38:48;24.50;92.60
12841;DHT22;6487;48.626;12.486;2023-07-13T09:41:23;24.50;93.50
12841;DHT22;6487;48.626;12.486;2023-07-13T09:44:18;24.60;93.00
12841;DHT22;6487;48.626;12.486;2023-07-13T09:46:58;24.40;92.70
12841;DHT22;6487;48.626;12.486;2023-07-13T09:49:30;24.30;93.40
12841;DHT22;6487;48.626;12.486;2023-07-13T09:52:04;24.30;92.70
12841;DHT22;6487;48.626;12.486;2023-07-13T09:54:35;24.10;93.50
12841;DHT22;6487;48.626;12.486;2023-07-13T09:57:12;23.90;93.60
12841;DHT22;6487;48.626;12.486;2023-07-13T09:59:45;23.90;94.70
12841;DHT22;6487;48.626;12.486;2023-07-13T10:02:23;23.70;95.20
12841;DHT22;6487;48.626;12.486;2023-07-13T10:04:58;23.70;96.80
12841;DHT22;6487;48.626;12.486;2023-07-13T10:07:30;23.60;98.40
12841;DHT22;6487;48.626;12.486;2023-07-13T10:10:00;23.50;98.30
12841;DHT22;6487;48.626;12.486;2023-07-13T10:12:33;23.40;99.90
12841;DHT22;6487;48.626;12.486;2023-07-13T10:15:12;23.20;99.60
12841;DHT22;6487;48.626;12.486;2023-07-13T10:17:51;23.30;99.70
12841;DHT22;6487;48.626;12.486;2023-07-13T10:20:21;23.30;99.90
12841;DHT22;6487;48.626;12.486;2023-07-13T10:22:53;23.40;99.90
12841;DHT22;6487;48.626;12.486;2023-07-13T10:25:26;23.40;98.90
12841;DHT22;6487;48.626;12.486;2023-07-13T10:28:03;23.50;99.50
12841;DHT22;6487;48.626;12.486;2023-07-13T10:30:35;23.40;98.10
12841;DHT22;6487;48.626;12.486;2023-07-13T10:33:11;23.40;97.40
12841;DHT22;6487;48.626;12.486;2023-07-13T10:35:43;23.50;97.30
12841;DHT22;6487;48.626;12.486;2023-07-13T10:38:18;23.50;97.00
12841;DHT22;6487;48.626;12.486;2023-07-13T10:40:56;23.60;96.90
12841;DHT22;6487;48.626;12.486;2023-07-13T10:43:33;23.70;96.80
12841;DHT22;6487;48.626;12.486;2023-07-13T10:46:05;23.90;96.60
12841;DHT22;6487;48.626;12.486;2023-07-13T10:48:37;24.00;95.00
12841;DHT22;6487;48.626;12.486;2023-07-13T10:51:09;24.30;95.00
12841;DHT22;6487;48.626;12.486;2023-07-13T10:53:39;24.50;94.10
12841;DHT22;6487;48.626;12.486;2023-07-13T10:56:22;24.50;93.30
12841;DHT22;6487;48.626;12.486;2023-07-13T10:59:04;24.60;91.70
12841;DHT22;6487;48.626;12.486;2023-07-13T11:01:49;24.80;92.90
12841;DHT22;6487;48.626;12.486;2023-07-13T11:04:21;25.10;92.40
12841;DHT22;6487;48.626;12.486;2023-07-13T11:06:58;25.30;91.40
12841;DHT22;6487;48.626;12.486;2023-07-13T11:09:36;25.60;90.80
12841;DHT22;6487;48.626;12.486;2023-07-13T11:12:08;25.70;91.40
12841;DHT22;6487;48.626;12.486;2023-07-13T11:15:03;25.90;91.70
12841;DHT22;6487;48.626;12.486;2023-07-13T11:17:37;26.00;92.40
12841;DHT22;6487;48.626;12.486;2023-07-13T11:20:31;26.10;90.80
12841;DHT22;6487;48.626;12.486;2023-07-13T11:23:29;26.10;90.80
12841;DHT22;6487;48.626;12.486;2023-07-13T11:25:59;26.30;90.90
12841;DHT22;6487;48.626;12.486;2023-07-13T11:28:34;26.50;91.00
12841;DHT22;6487;48.626;12.486;2023-07-13T11:31:16;26.60;91.20
12841;DHT22;6487;48.626;12.486;2023-07-13T11:34:06;26.70;90.40
12841;DHT22;6487;48.626;12.486;2023-07-13T11:36:44;26.50;86.80
12841;DHT22;6487;48.626;12.486;2023-07-13T11:39:18;26.90;91.10
12841;DHT22;6487;48.626;12.486;2023-07-13T11:41:52;27.00;88.10
12841;DHT22;6487;48.626;12.486;2023-07-13T11:44:26;26.80;87.80
12841;DHT22;6487;48.626;12.486;2023-07-13T11:46:57;27.00;87.10
12841;DHT22;6487;48.626;12.486;2023-07-13T11:49:31;27.00;89.80
12841;DHT22;6487;48.626;12.486;2023-07-13T11:52:02;27.10;88.30
12841;DHT22;6487;48.626;12.486;2023-07-13T11:54:34;27.10;88.00
12841;DHT22;6487;48.626;12.486;2023-07-13T11:57:24;27.30;84.60
12841;DHT22;6487;48.626;12.486;2023-07-13T11:59:55;27.50;84.20
12841;DHT22;6487;48.626;12.486;2023-07-13T12:02:28;27.50;84.30
12841;DHT22;6487;48.626;12.486;2023-07-13T12:04:59;27.70;86.80
12841;DHT22;6487;48.626;12.486;2023-07-13T12:07:31;27.70;79.80
12841;DHT22;6487;48.626;12.486;2023-07-13T12:10:03;27.80;84.00
12841;DHT22;6487;48.626;12.486;2023-07-13T12:12:48;27.90;84.30
12841;DHT22;6487;48.626;12.486;2023-07-13T12:15:20;28.00;84.40
12841;DHT22;6487;48.626;12.486;2023-07-13T12:17:50;28.10;83.00
12841;DHT22;6487;48.626;12.486;2023-07-13T12:20:21;28.20;81.80
12841;DHT22;6487;48.626;12.486;2023-07-13T12:22:52;27.90;74.70
12841;DHT22;6487;48.626;12.486;2023-07-13T12:25:23;28.10;77.80
12841;DHT22;6487;48.626;12.486;2023-07-13T12:27:52;28.40;77.50
12841;DHT22;6487;48.626;12.486;2023-07-13T12:30:30;28.20;76.30
12841;DHT22;6487;48.626;12.486;2023-07-13T12:33:11;28.30;80.80
12841;DHT22;6487;48.626;12.486;2023-07-13T12:35:44;28.50;78.70
12841;DHT22;6487;48.626;12.486;2023-07-13T12:38:15;28.60;75.70
12841;DHT22;6487;48.626;12.486;2023-07-13T12:40:49;28.70;76.00
12841;DHT22;6487;48.626;12.486;2023-07-13T12:43:20;28.90;78.10
12841;DHT22;6487;48.626;12.486;2023-07-13T12:45:56;29.10;78.00
12841;DHT22;6487;48.626;12.486;2023-07-13T12:48:27;29.10;74.20
12841;DHT22;6487;48.626;12.486;2023-07-13T12:51:13;29.10;75.90
12841;DHT22;6487;48.626;12.486;2023-07-13T12:53:49;29.00;70.60
12841;DHT22;6487;48.626;12.486;2023-07-13T12:56:23;28.80;72.20
12841;DHT22;6487;48.626;12.486;2023-07-13T12:58:58;28.60;71.00
12841;DHT22;6487;48.626;12.486;2023-07-13T13:01:33;28.70;74.30
12841;DHT22;6487;48.626;12.486;2023-07-13T13:04:04;29.00;71.10
12841;DHT22;6487;48.626;12.486;2023-07-13T13:06:36;29.10;70.00
12841;DHT22;6487;48.626;12.486;2023-07-13T13:09:11;29.20;74.00
12841;DHT22;6487;48.626;12.486;2023-07-13T13:11:42;29.10;70.90
12841;DHT22;6487;48.626;12.486;2023-07-13T13:14:11;29.10;68.90
12841;DHT22;6487;48.626;12.486;2023-07-13T13:16:47;29.30;72.80
12841;DHT22;6487;48.626;12.486;2023-07-13T13:19:19;29.40;72.80
12841;DHT22;6487;48.626;12.486;2023-07-13T13:21:49;29.40;69.60
12841;DHT22;6487;48.626;12.486;2023-07-13T13:24:21;29.50;71.30
12841;DHT22;6487;48.626;12.486;2023-07-13T13:26:52;29.30;70.20
12841;DHT22;6487;48.626;12.486;2023-07-13T13:29:24;29.00;68.30
12841;DHT22;6487;48.626;12.486;2023-07-13T13:31:54;28.80;67.30
12841;DHT22;6487;48.626;12.486;2023-07-13T13:34:24;28.90;69.10
12841;DHT22;6487;48.626;12.486;2023-07-13T13:36:54;29.00;70.90
12841;DHT22;6487;48.626;12.486;2023-07-13T13:39:31;29.00;72.20
12841;DHT22;6487;48.626;12.486;2023-07-13T13:42:03;29.00;69.00
12841;DHT22;6487;48.626;12.486;2023-07-13T13:44:32;29.00;71.00
12841;DHT22;6487;48.626;12.486;2023-07-13T13:47:00;29.00;71.70
12841;DHT22;6487;48.626;12.486;2023-07-13T13:49:30;29.00;68.90
12841;DHT22;6487;48.626;12.486;2023-07-13T13:51:58;29.20;71.00
12841;DHT22;6487;48.626;12.486;2023-07-13T13:54:27;29.20;69.80
12841;DHT22;6487;48.626;12.486;2023-07-13T13:56:55;29.00;67.30
12841;DHT22;6487;48.626;12.486;2023-07-13T13:59:28;28.90;68.80
12841;DHT22;6487;48.626;12.486;2023-07-13T14:01:59;28.90;69.20
12841;DHT22;6487;48.626;12.486;2023-07-13T14:04:27;28.90;68.50
12841;DHT22;6487;48.626;12.486;2023-07-13T14:06:56;28.80;68.10
12841;DHT22;6487;48.626;12.486;2023-07-13T14:09:24;29.20;71.00
12841;DHT22;6487;48.626;12.486;2023-07-13T14:11:53;29.10;70.10
12841;DHT22;6487;48.626;12.486;2023-07-13T14:14:23;28.80;69.90
12841;DHT22;6487;48.626;12.486;2023-07-13T14:16:55;28.80;68.20
12841;DHT22;6487;48.626;12.486;2023-07-13T14:19:24;28.80;66.90
12841;DHT22;6487;48.626;12.486;2023-07-13T14:21:53;28.60;66.10
12841;DHT22;6487;48.626;12.486;2023-07-13T14:24:21;28.50;65.30
12841;DHT22;6487;48.626;12.486;2023-07-13T14:26:50;28.40;67.90
12841;DHT22;6487;48.626;12.486;2023-07-13T14:29:19;28.40;68.40
12841;DHT22;6487;48.626;12.486;2023-07-13T14:31:51;28.50;70.00
12841;DHT22;6487;48.626;12.486;2023-07-13T14:34:21;28.30;69.80
12841;DHT22;6487;48.626;12.486;2023-07-13T14:36:50;28.00;65.30
12841;DHT22;6487;48.626;12.486;2023-07-13T14:39:20;27.90;68.50
12841;DHT22;6487;48.626;12.486;2023-07-13T14:41:50;28.00;69.60
12841;DHT22;6487;48.626;12.486;2023-07-13T14:44:22;28.20;69.70
12841;DHT22;6487;48.626;12.486;2023-07-13T14:46:52;28.20;70.10
12841;DHT22;6487;48.626;12.486;2023-07-13T14:49:25;28.10;66.80
12841;DHT22;6487;48.626;12.486;2023-07-13T14:51:59;28.30;67.00
12841;DHT22;6487;48.626;12.486;2023-07-13T14:54:29;28.30;68.50
12841;DHT22;6487;48.626;12.486;2023-07-13T14:56:57;28.30;66.40
12841;DHT22;6487;48.626;12.486;2023-07-13T14:59:25;28.30;66.00
12841;DHT22;6487;48.626;12.486;2023-07-13T15:01:54;28.20;66.00
12841;DHT22;6487;48.626;12.486;2023-07-13T15:04:24;28.20;68.50
12841;DHT22;6487;48.626;12.486;2023-07-13T15:06:54;28.10;68.70
12841;DHT22;6487;48.626;12.486;2023-07-13T15:09:24;28.10;70.30
12841;DHT22;6487;48.626;12.486;2023-07-13T15:11:54;28.40;72.30
12841;DHT22;6487;48.626;12.486;2023-07-13T15:14:23;28.40;70.80
12841;DHT22;6487;48.626;12.486;2023-07-13T15:16:53;28.30;67.30
12841;DHT22;6487;48.626;12.486;2023-07-13T15:19:25;28.30;68.00
12841;DHT22;6487;48.626;12.486;2023-07-13T15:21:54;28.20;67.50
12841;DHT22;6487;48.626;12.486;2023-07-13T15:24:25;28.30;70.00
12841;DHT22;6487;48.626;12.486;2023-07-13T15:26:53;28.20;68.20
12841;DHT22;6487;48.626;12.486;2023-07-13T15:29:22;28.20;67.60
12841;DHT22;6487;48.626;12.486;2023-07-13T15:31:50;28.00;66.40
12841;DHT22;6487;48.626;12.486;2023-07-13T15:34:22;28.00;68.20
12841;DHT22;6487;48.626;12.486;2023-07-13T15:36:53;28.10;67.20
12841;DHT22;6487;48.626;12.486;2023-07-13T15:39:22;27.70;66.10
12841;DHT22;6487;48.626;12.486;2023-07-13T15:41:52;27.60;66.00
12841;DHT22;6487;48.626;12.486;2023-07-13T15:44:25;27.40;66.30
12841;DHT22;6487;48.626;12.486;2023-07-13T15:46:55;27.30;65.30
12841;DHT22;6487;48.626;12.486;2023-07-13T15:49:25;27.40;68.40
12841;DHT22;6487;48.626;12.486;2023-07-13T15:51:53;27.40;70.00
12841;DHT22;6487;48.626;12.486;2023-07-13T15:54:23;27.40;68.70
12841;DHT22;6487;48.626;12.486;2023-07-13T15:56:53;27.40;68.70